Mooresville, Alabama
Current Conditions -  °F | °C
As of 3:53 PM on Thursday 27 Nov 2014 (Local Time) from KDCU Reporting Station
Overcast Overcast  
Wind Chill: 35°   Ceiling: 4100
Heat Index: 41°   Visibility: 10mi
Dew Point: 27°   Wind: 10mph
Humidity: 57%   Direction: 330°NNW
Pressure: 30.43"   Gusts: NA
Location:  34.63°N, 86.88°W
Report Text: KDCU 272153Z AUTO 33009KT 10SM OVC041 05/M03 A3043 RMK AO2 SLP305 T00501028
Loading
Personal Weather Stations






























Interactive Weather Map New forecast layout! Learn more

10-Day Weather Forecast

Advertisements
Track Severe Weather on mobile